createdAt,value
2023-01-01T00:00:44.356Z,12.32
2023-01-01T00:03:11.563Z,9.63
2023-01-01T00:05:39.302Z,10.43
2023-01-01T00:08:06.431Z,7.30
2023-01-01T00:10:33.834Z,10.10
2023-01-01T00:13:01.230Z,6.10
2023-01-01T00:15:28.786Z,10.85
2023-01-01T00:17:56.641Z,11.27
2023-01-01T00:20:24.091Z,8.50
2023-01-01T00:22:55.771Z,7.82
2023-01-01T00:25:25.515Z,10.70
2023-01-01T00:27:52.861Z,8.50
2023-01-01T00:30:20.108Z,9.02
2023-01-01T00:32:54.438Z,9.77
2023-01-01T00:35:26.763Z,10.70
2023-01-01T00:37:55.412Z,10.07
2023-01-01T00:40:23.366Z,8.18
2023-01-01T00:42:50.486Z,7.90
2023-01-01T00:45:22.002Z,6.68
2023-01-01T00:47:51.413Z,7.93
2023-01-01T00:50:18.821Z,6.65
2023-01-01T00:52:46.098Z,8.02
2023-01-01T00:55:13.337Z,6.07
2023-01-01T00:57:40.488Z,6.38
2023-01-01T01:00:09.430Z,6.70
2023-01-01T01:02:36.770Z,5.22
2023-01-01T01:05:04.934Z,6.38
2023-01-01T01:07:39.266Z,6.28
2023-01-01T01:10:07.506Z,4.47
2023-01-01T01:12:36.403Z,6.22
2023-01-01T01:15:05.067Z,6.00
2023-01-01T01:17:32.417Z,6.18
2023-01-01T01:19:59.514Z,5.90
2023-01-01T01:22:28.950Z,6.10
2023-01-01T01:24:57.732Z,5.03
2023-01-01T01:27:25.305Z,4.70
2023-01-01T01:29:53.092Z,4.85
2023-01-01T01:32:20.563Z,4.63
2023-01-01T01:34:47.860Z,4.43
2023-01-01T01:37:15.156Z,4.68
2023-01-01T01:39:42.483Z,3.67
2023-01-01T01:42:17.248Z,5.20
2023-01-01T01:44:44.524Z,4.55
2023-01-01T01:47:24.010Z,3.95
2023-01-01T01:50:03.213Z,4.22
2023-01-01T01:52:32.904Z,4.93
2023-01-01T01:55:02.305Z,5.22
2023-01-01T01:57:30.521Z,4.35
2023-01-01T01:59:58.886Z,5.05
2023-01-01T02:02:42.524Z,3.72
2023-01-01T02:05:09.992Z,4.35
2023-01-01T02:07:37.454Z,4.22
2023-01-01T02:10:04.860Z,4.32
2023-01-01T02:12:32.271Z,4.85
2023-01-01T02:15:19.894Z,4.60
2023-01-01T02:17:55.742Z,4.18
2023-01-01T02:20:43.093Z,4.05
2023-01-01T02:23:29.954Z,4.40
2023-01-01T02:26:18.725Z,4.18
2023-01-01T02:29:08.301Z,3.15
2023-01-01T02:31:42.516Z,4.30
2023-01-01T02:34:14.602Z,2.40
2023-01-01T02:36:48.847Z,3.90
2023-01-01T02:39:19.382Z,3.28
2023-01-01T02:41:50.992Z,2.80
2023-01-01T02:44:20.763Z,4.20
2023-01-01T02:46:48.396Z,3.35
2023-01-01T02:49:15.505Z,3.42
2023-01-01T02:51:45.447Z,3.60
2023-01-01T02:54:18.494Z,3.90
2023-01-01T03:00:31.713Z,2.67
2023-01-01T03:03:06.652Z,3.50
2023-01-01T03:06:15.854Z,3.72
2023-01-01T03:08:55.195Z,4.32
2023-01-01T03:11:25.708Z,4.00
2023-01-01T03:14:01.875Z,3.67
2023-01-01T03:16:36.767Z,3.63
2023-01-01T03:19:16.835Z,3.53
2023-01-01T03:22:09.336Z,3.95
2023-01-01T03:24:45.401Z,3.70
2023-01-01T03:27:36.249Z,3.20
2023-01-01T03:30:11.234Z,4.13
2023-01-01T03:33:08.058Z,4.15
2023-01-01T03:35:35.577Z,4.53
2023-01-01T03:38:05.582Z,3.35
2023-01-01T03:40:37.176Z,2.90
2023-01-01T03:43:21.391Z,4.22
2023-01-01T03:45:51.306Z,4.20
2023-01-01T03:48:18.665Z,3.88
2023-01-01T03:51:14.164Z,3.63
2023-01-01T03:53:43.756Z,4.88
2023-01-01T03:56:10.888Z,3.88
2023-01-01T03:58:50.049Z,4.90
2023-01-01T04:01:27.260Z,5.25
2023-01-01T04:03:54.967Z,5.00
2023-01-01T04:06:22.132Z,4.70
2023-01-01T04:08:53.161Z,4.60
2023-01-01T04:11:45.206Z,4.97
2023-01-01T04:14:12.519Z,4.03
2023-01-01T04:16:39.945Z,3.63
2023-01-01T04:19:07.261Z,5.15
2023-01-01T04:21:34.571Z,4.03
2023-01-01T04:24:01.796Z,3.20
2023-01-01T04:26:28.821Z,3.75
2023-01-01T04:28:56.113Z,3.33
2023-01-01T04:31:23.191Z,4.70
2023-01-01T04:33:54.254Z,5.10
2023-01-01T04:36:21.472Z,5.18
2023-01-01T04:38:48.561Z,4.50
2023-01-01T04:41:15.676Z,3.83
2023-01-01T04:43:44.531Z,4.32
2023-01-01T04:46:11.590Z,4.70
2023-01-01T04:48:38.757Z,4.32
2023-01-01T04:51:06.081Z,4.75
2023-01-01T04:53:35.278Z,4.10
2023-01-01T04:56:09.365Z,4.70
2023-01-01T04:58:38.283Z,4.85
2023-01-01T05:01:07.283Z,4.47
2023-01-01T05:03:34.727Z,4.57
2023-01-01T05:06:04.679Z,3.47
2023-01-01T05:08:33.544Z,4.90
2023-01-01T05:11:13.112Z,5.05
2023-01-01T05:13:42.571Z,4.85
2023-01-01T05:16:15.939Z,4.25
2023-01-01T05:18:44.044Z,3.95
2023-01-01T05:21:26.653Z,4.20
2023-01-01T05:23:59.513Z,4.10
2023-01-01T05:26:32.034Z,3.92
2023-01-01T05:29:00.553Z,3.33
2023-01-01T05:31:30.288Z,3.72
2023-01-01T05:36:30.100Z,4.40
2023-01-01T05:38:58.383Z,3.42
2023-01-01T05:41:25.867Z,3.65
2023-01-01T05:43:54.112Z,4.22
2023-01-01T05:46:25.523Z,4.03
2023-01-01T05:48:54.095Z,4.70
2023-01-01T05:51:23.904Z,4.32
2023-01-01T05:53:51.767Z,4.30
2023-01-01T05:56:19.091Z,4.10
2023-01-01T05:58:46.771Z,3.70
2023-01-01T06:01:16.931Z,3.80
2023-01-01T06:03:44.432Z,3.95
2023-01-01T06:06:14.071Z,3.88
2023-01-01T06:08:41.598Z,3.95
2023-01-01T06:11:11.878Z,4.15
2023-01-01T06:13:39.282Z,4.00
2023-01-01T06:16:06.933Z,3.55
2023-01-01T06:18:35.373Z,4.05
2023-01-01T06:21:17.652Z,3.30
2023-01-01T06:23:45.187Z,3.85
2023-01-01T06:26:15.970Z,3.67
2023-01-01T06:28:44.105Z,3.90
2023-01-01T06:31:13.876Z,3.25
2023-01-01T06:33:41.602Z,3.38
2023-01-01T06:36:11.435Z,3.72
2023-01-01T06:38:41.325Z,4.03
2023-01-01T06:41:14.346Z,3.25
2023-01-01T06:46:19.384Z,3.22
2023-01-01T06:48:48.943Z,2.92
2023-01-01T06:51:19.551Z,2.50
2023-01-01T06:53:48.137Z,3.28
2023-01-01T06:56:17.347Z,3.80
2023-01-01T06:58:44.673Z,2.92
2023-01-01T07:01:18.028Z,2.63
2023-01-01T07:04:00.313Z,3.67
2023-01-01T07:06:29.319Z,3.50
2023-01-01T07:08:56.537Z,3.60
2023-01-01T07:11:24.327Z,3.35
2023-01-01T07:13:51.506Z,3.38
2023-01-01T07:16:18.867Z,3.33
2023-01-01T07:18:47.473Z,2.83
2023-01-01T07:21:47.255Z,3.53
2023-01-01T07:24:16.283Z,2.67
2023-01-01T07:26:44.500Z,3.28
2023-01-01T07:29:13.076Z,3.50
2023-01-01T07:31:41.438Z,2.92
2023-01-01T07:34:13.696Z,5.93
2023-01-01T07:36:41.459Z,3.60
2023-01-01T07:39:09.262Z,3.30
2023-01-01T07:41:36.724Z,3.20
2023-01-01T07:44:03.914Z,3.28
2023-01-01T07:46:31.689Z,3.42
2023-01-01T07:48:59.350Z,3.58
2023-01-01T07:51:27.816Z,3.30
2023-01-01T07:53:55.808Z,3.25
2023-01-01T07:56:25.513Z,3.30
2023-01-01T07:58:52.657Z,3.30
2023-01-01T08:01:20.437Z,3.60
2023-01-01T08:03:52.157Z,3.33
2023-01-01T08:06:19.386Z,3.70
2023-01-01T08:08:46.496Z,3.85
2023-01-01T08:11:13.577Z,3.35
2023-01-01T08:13:40.990Z,3.88
2023-01-01T08:16:08.391Z,3.67
2023-01-01T08:18:35.724Z,3.55
2023-01-01T08:21:03.754Z,3.75
2023-01-01T08:23:31.213Z,3.60
2023-01-01T08:26:02.489Z,3.03
2023-01-01T08:28:30.553Z,4.00
2023-01-01T08:30:58.325Z,3.53
2023-01-01T08:34:21.600Z,4.32
2023-01-01T08:36:48.766Z,3.67
2023-01-01T08:39:15.812Z,4.25
2023-01-01T08:41:42.921Z,3.92
2023-01-01T08:44:10.097Z,3.25
2023-01-01T08:46:37.475Z,4.57
2023-01-01T08:49:04.752Z,4.75
2023-01-01T08:51:31.995Z,4.78
2023-01-01T08:53:59.078Z,3.88
2023-01-01T08:56:26.308Z,4.47
2023-01-01T08:58:55.164Z,4.82
2023-01-01T09:01:28.005Z,5.40
2023-01-01T09:03:55.356Z,5.03
2023-01-01T09:06:22.465Z,4.93
2023-01-01T09:08:49.648Z,5.10
2023-01-01T09:11:24.225Z,5.05
2023-01-01T09:13:51.420Z,5.35
2023-01-01T09:16:18.920Z,5.55
2023-01-01T09:18:46.165Z,5.72
2023-01-01T09:21:13.504Z,5.50
2023-01-01T09:23:40.789Z,6.38
2023-01-01T09:26:09.982Z,6.03
2023-01-01T09:28:37.959Z,6.45
2023-01-01T09:31:06.570Z,5.68
2023-01-01T09:33:34.804Z,5.82
2023-01-01T09:36:27.549Z,5.60
2023-01-01T09:38:56.192Z,5.85
2023-01-01T09:41:57.440Z,5.70
2023-01-01T09:44:49.364Z,5.65
2023-01-01T09:47:26.097Z,5.35
2023-01-01T09:49:57.169Z,6.15
2023-01-01T09:52:29.404Z,5.88
2023-01-01T09:55:02.817Z,5.95
2023-01-01T09:57:32.211Z,5.75
2023-01-01T10:00:00.281Z,6.40
2023-01-01T10:02:45.575Z,5.60
2023-01-01T10:05:36.796Z,6.05
2023-01-01T10:08:23.510Z,6.30
2023-01-01T10:11:05.256Z,5.47
2023-01-01T10:13:41.152Z,5.43
2023-01-01T10:16:24.633Z,5.43
2023-01-01T10:18:58.884Z,6.07
2023-01-01T10:21:30.700Z,5.88
2023-01-01T10:24:13.027Z,5.57
2023-01-01T10:26:40.680Z,4.63
2023-01-01T10:29:16.921Z,5.00
2023-01-01T10:31:47.774Z,5.25
2023-01-01T10:34:28.444Z,5.32
2023-01-01T10:36:59.326Z,4.63
2023-01-01T10:39:27.376Z,4.80
2023-01-01T10:41:54.582Z,5.35
2023-01-01T10:44:30.475Z,4.63
2023-01-01T10:47:04.047Z,4.97
2023-01-01T10:49:31.230Z,3.80
2023-01-01T10:51:59.488Z,4.80
2023-01-01T10:54:31.306Z,4.35
2023-01-01T10:56:59.442Z,4.15
2023-01-01T10:59:39.084Z,4.00
2023-01-01T11:02:15.735Z,4.40
2023-01-01T11:04:43.020Z,3.88
2023-01-01T11:07:13.828Z,3.88
2023-01-01T11:09:45.001Z,4.20
2023-01-01T11:15:33.354Z,3.70
2023-01-01T11:18:12.368Z,3.47
2023-01-01T11:20:40.757Z,3.58
2023-01-01T11:23:35.087Z,3.60
2023-01-01T11:26:14.191Z,3.63
2023-01-01T11:28:41.951Z,3.83
2023-01-01T11:31:18.831Z,3.63
2023-01-01T11:33:54.248Z,3.60
2023-01-01T11:36:33.611Z,3.03
2023-01-01T11:39:27.137Z,3.30
2023-01-01T11:44:30.340Z,3.50
2023-01-01T11:46:58.533Z,3.40
2023-01-01T11:49:29.680Z,3.78
2023-01-01T11:51:57.871Z,3.50
2023-01-01T11:54:34.167Z,3.63
2023-01-01T11:57:15.032Z,3.33
2023-01-01T11:59:54.704Z,3.40
2023-01-01T12:02:38.689Z,3.28
2023-01-01T12:05:20.768Z,2.80
2023-01-01T12:07:48.367Z,3.05
2023-01-01T12:10:33.767Z,2.92
2023-01-01T12:13:16.743Z,2.90
2023-01-01T12:15:47.139Z,2.88
2023-01-01T12:18:22.065Z,3.35
2023-01-01T12:20:59.664Z,3.28
2023-01-01T12:23:27.291Z,3.03
2023-01-01T12:26:36.319Z,3.00
2023-01-01T12:29:24.273Z,3.10
2023-01-01T12:32:03.460Z,3.40
2023-01-01T12:34:33.497Z,3.00
2023-01-01T12:37:21.002Z,3.20
2023-01-01T12:40:00.389Z,2.78
2023-01-01T12:42:57.137Z,3.00
2023-01-01T12:46:02.061Z,3.03
2023-01-01T12:48:41.171Z,2.78
2023-01-01T12:51:41.077Z,3.10
2023-01-01T12:54:29.185Z,3.13
2023-01-01T12:56:56.300Z,3.20
2023-01-01T12:59:28.577Z,2.97
2023-01-01T13:02:02.399Z,2.90
2023-01-01T13:04:30.656Z,2.78
2023-01-01T13:07:08.485Z,3.17
2023-01-01T13:09:45.486Z,3.17
2023-01-01T13:12:24.779Z,3.40
2023-01-01T13:14:52.121Z,2.72
2023-01-01T13:17:25.284Z,3.00
2023-01-01T13:25:11.365Z,2.60
2023-01-01T13:27:59.626Z,3.10
2023-01-01T13:30:36.172Z,2.65
2023-01-01T13:33:35.142Z,2.50
2023-01-01T13:36:28.300Z,2.70
2023-01-01T13:38:56.261Z,2.55
2023-01-01T13:41:45.713Z,3.08
2023-01-01T13:44:23.467Z,2.50
2023-01-01T13:47:31.320Z,2.33
2023-01-01T13:50:21.225Z,2.83
2023-01-01T13:53:13.522Z,2.50
2023-01-01T13:56:26.261Z,2.65
2023-01-01T13:59:21.399Z,2.90
2023-01-01T14:02:14.887Z,2.60
2023-01-01T14:04:57.846Z,2.65
2023-01-01T14:07:50.652Z,2.70
2023-01-01T14:10:28.501Z,2.97
2023-01-01T14:13:18.345Z,2.90
2023-01-01T14:15:54.578Z,2.67
2023-01-01T14:18:34.852Z,3.10
2023-01-01T14:21:02.725Z,2.90
2023-01-01T14:23:39.728Z,3.20
2023-01-01T14:26:13.952Z,2.78
2023-01-01T14:28:42.932Z,2.70
2023-01-01T14:31:19.547Z,2.97
2023-01-01T14:33:47.547Z,2.55
2023-01-01T14:36:24.924Z,2.67
2023-01-01T14:38:55.001Z,2.50
2023-01-01T14:41:35.714Z,2.83
2023-01-01T14:44:11.433Z,2.80
2023-01-01T14:46:44.812Z,2.72
2023-01-01T14:49:17.678Z,2.50
2023-01-01T14:51:54.872Z,2.42
2023-01-01T14:54:26.686Z,2.58
2023-01-01T14:56:53.716Z,2.90
2023-01-01T14:59:28.733Z,2.65
2023-01-01T15:02:24.126Z,2.90
2023-01-01T15:04:51.917Z,2.80
2023-01-01T15:07:29.128Z,2.80
2023-01-01T15:10:00.606Z,2.92
2023-01-01T15:12:28.598Z,3.00
2023-01-01T15:14:58.157Z,2.78
2023-01-01T15:17:26.626Z,3.03
2023-01-01T15:20:07.698Z,3.20
2023-01-01T15:22:39.208Z,2.90
2023-01-01T15:25:12.006Z,2.90
2023-01-01T15:27:40.042Z,3.25
2023-01-01T15:30:13.545Z,3.20
2023-01-01T15:32:41.838Z,3.22
2023-01-01T15:35:41.679Z,3.63
2023-01-01T15:38:26.808Z,4.18
2023-01-01T15:40:54.132Z,3.88
2023-01-01T15:43:26.366Z,3.70
2023-01-01T15:46:10.986Z,4.13
2023-01-01T15:48:51.110Z,3.80
2023-01-01T15:51:24.456Z,4.13
2023-01-01T15:54:00.522Z,7.50
2023-01-01T15:56:33.247Z,4.60
2023-01-01T15:59:09.755Z,4.75
2023-01-01T16:03:47.583Z,3.97
2023-01-01T16:06:19.900Z,4.70
2023-01-01T16:08:47.709Z,5.03
2023-01-01T16:11:14.930Z,4.38
2023-01-01T16:13:42.431Z,4.53
2023-01-01T16:16:28.675Z,5.43
2023-01-01T16:18:57.610Z,5.30
2023-01-01T16:21:27.529Z,4.80
2023-01-01T16:23:55.828Z,6.50
2023-01-01T16:26:23.228Z,6.60
2023-01-01T16:28:50.562Z,5.18
2023-01-01T16:31:36.208Z,5.10
2023-01-01T16:34:03.741Z,4.57
2023-01-01T16:36:31.376Z,4.78
2023-01-01T16:38:58.783Z,4.95
2023-01-01T16:41:28.422Z,4.38
2023-01-01T16:43:56.192Z,3.75
2023-01-01T16:46:23.325Z,4.47
2023-01-01T16:48:50.546Z,4.30
2023-01-01T16:51:19.418Z,4.20
2023-01-01T16:53:47.780Z,4.30
2023-01-01T16:56:15.522Z,5.90
2023-01-01T16:58:53.277Z,5.60
2023-01-01T17:01:25.538Z,5.72
2023-01-01T17:03:52.975Z,5.00
2023-01-01T17:06:20.620Z,5.03
2023-01-01T17:08:47.891Z,4.68
2023-01-01T17:11:17.203Z,5.28
2023-01-01T17:13:46.343Z,4.85
2023-01-01T17:16:19.392Z,5.53
2023-01-01T17:21:39.564Z,4.85
2023-01-01T17:24:07.169Z,4.80
2023-01-01T17:26:34.559Z,5.18
2023-01-01T17:29:03.120Z,5.10
2023-01-01T17:31:31.269Z,5.00
2023-01-01T17:33:59.044Z,5.60
2023-01-01T17:36:27.707Z,5.43
2023-01-01T17:38:55.750Z,5.57
2023-01-01T17:41:23.529Z,6.15
2023-01-01T17:43:51.853Z,5.60
2023-01-01T17:46:20.263Z,5.68
2023-01-01T17:48:48.276Z,6.97
2023-01-01T17:51:17.249Z,6.70
2023-01-01T17:53:44.930Z,7.35
2023-01-01T17:56:14.603Z,7.78
2023-01-01T17:58:43.877Z,7.15
2023-01-01T18:01:11.052Z,15.32
2023-01-01T18:03:40.134Z,6.85
2023-01-01T18:06:07.783Z,6.97
2023-01-01T18:08:34.935Z,7.18
2023-01-01T18:11:02.251Z,7.45
2023-01-01T18:13:29.388Z,7.50
2023-01-01T18:16:11.828Z,7.57
2023-01-01T18:18:40.758Z,9.05
2023-01-01T18:21:26.242Z,8.25
2023-01-01T18:23:56.214Z,8.13
2023-01-01T18:26:25.944Z,8.05
2023-01-01T18:28:54.578Z,7.97
2023-01-01T18:31:23.443Z,8.35
2023-01-01T18:33:51.160Z,7.40
2023-01-01T18:36:21.893Z,7.78
2023-01-01T18:39:01.362Z,8.75
2023-01-01T18:41:43.358Z,8.13
2023-01-01T18:44:21.225Z,7.38
2023-01-01T18:47:00.530Z,8.32
2023-01-01T18:49:27.885Z,8.07
2023-01-01T18:51:57.656Z,7.60
2023-01-01T18:54:25.920Z,7.93
2023-01-01T18:57:17.014Z,7.38
2023-01-01T18:59:44.116Z,8.02
2023-01-01T19:02:17.847Z,11.80
2023-01-01T19:04:44.998Z,6.93
2023-01-01T19:07:12.432Z,7.30
2023-01-01T19:09:39.624Z,7.93
2023-01-01T19:12:12.916Z,7.85
2023-01-01T19:14:41.268Z,6.75
2023-01-01T19:17:21.649Z,7.43
2023-01-01T19:19:49.008Z,7.97
2023-01-01T19:22:21.102Z,7.03
2023-01-01T19:24:48.335Z,7.47
2023-01-01T19:27:18.209Z,7.57
2023-01-01T19:29:46.904Z,7.80
2023-01-01T19:32:14.095Z,7.55
2023-01-01T19:34:41.207Z,7.50
2023-01-01T19:37:09.602Z,8.00
2023-01-01T19:39:36.894Z,7.32
2023-01-01T19:42:07.161Z,6.95
2023-01-01T19:44:36.342Z,8.27
2023-01-01T19:47:09.282Z,8.20
2023-01-01T19:49:36.533Z,7.80
2023-01-01T19:52:03.835Z,7.82
2023-01-01T19:54:31.027Z,7.18
2023-01-01T19:56:58.121Z,7.43
2023-01-01T19:59:32.616Z,7.38
2023-01-01T20:02:35.073Z,6.75
2023-01-01T20:04:47.700Z,7.45
2023-01-01T20:07:14.975Z,7.35
2023-01-01T20:09:42.204Z,6.65
2023-01-01T20:12:09.537Z,7.30
2023-01-01T20:14:36.617Z,6.85
2023-01-01T20:17:03.710Z,6.78
2023-01-01T20:19:30.905Z,6.70
2023-01-01T20:22:14.392Z,6.25
2023-01-01T20:24:42.463Z,6.85
2023-01-01T20:27:10.023Z,6.05
2023-01-01T20:29:37.233Z,6.53
2023-01-01T20:32:05.120Z,6.38
2023-01-01T20:34:32.394Z,6.30
2023-01-01T20:37:18.300Z,6.72
2023-01-01T20:39:45.436Z,6.65
2023-01-01T20:42:12.471Z,6.22
2023-01-01T20:44:42.824Z,5.82
2023-01-01T20:47:11.172Z,6.50
2023-01-01T20:49:38.378Z,6.22
2023-01-01T20:52:05.679Z,6.15
2023-01-01T20:54:32.778Z,5.80
2023-01-01T20:56:59.932Z,5.95
2023-01-01T20:59:36.251Z,5.53
2023-01-01T21:02:09.576Z,5.55
2023-01-01T21:07:11.199Z,5.68
2023-01-01T21:09:39.760Z,5.43
2023-01-01T21:12:07.604Z,5.15
2023-01-01T21:14:34.849Z,4.85
2023-01-01T21:17:28.986Z,4.60
2023-01-01T21:19:58.500Z,4.80
2023-01-01T21:22:27.955Z,4.53
2023-01-01T21:25:10.679Z,5.00
2023-01-01T21:27:43.704Z,4.38
2023-01-01T21:30:13.943Z,4.50
2023-01-01T21:32:46.289Z,4.78
2023-01-01T21:35:31.842Z,4.43
2023-01-01T21:38:00.052Z,4.88
2023-01-01T21:40:41.459Z,4.20
2023-01-01T21:43:08.421Z,5.00
2023-01-01T21:45:46.992Z,4.22
2023-01-01T21:48:16.573Z,4.47
2023-01-01T21:50:48.687Z,4.43
2023-01-01T21:53:18.388Z,4.03
2023-01-01T21:55:54.402Z,4.00
2023-01-01T21:58:52.515Z,3.72
2023-01-01T22:01:39.352Z,3.55
2023-01-01T22:04:31.456Z,3.80
2023-01-01T22:07:30.935Z,3.33
2023-01-01T22:09:56.931Z,3.50
2023-01-01T22:12:27.786Z,2.95
2023-01-01T22:14:57.496Z,3.47
2023-01-01T22:17:37.204Z,3.20
2023-01-01T22:20:23.245Z,3.60
2023-01-01T22:22:50.623Z,3.40
2023-01-01T22:25:27.851Z,2.83
2023-01-01T22:27:56.150Z,3.13
2023-01-01T22:30:26.258Z,2.78
2023-01-01T22:32:56.167Z,2.95
2023-01-01T22:38:33.970Z,3.55
2023-01-01T22:41:01.641Z,3.00
2023-01-01T22:43:36.249Z,2.95
2023-01-01T22:46:41.789Z,3.13
2023-01-01T22:49:41.485Z,3.38
2023-01-01T22:52:10.105Z,3.10
2023-01-01T22:54:37.186Z,2.78
2023-01-01T22:57:04.263Z,2.75
2023-01-01T22:59:31.530Z,1.98
2023-01-01T23:02:00.432Z,1.50
2023-01-01T23:04:27.561Z,2.00
2023-01-01T23:06:55.132Z,1.60
2023-01-01T23:09:22.315Z,1.50
2023-01-01T23:11:49.623Z,1.58
2023-01-01T23:14:38.822Z,1.73
2023-01-01T23:17:06.515Z,1.92
2023-01-01T23:19:34.317Z,1.60
2023-01-01T23:22:03.050Z,1.77
2023-01-01T23:24:31.584Z,1.40
2023-01-01T23:27:00.621Z,1.40
2023-01-01T23:29:30.355Z,1.17
2023-01-01T23:31:57.653Z,1.10
2023-01-01T23:34:25.027Z,0.90
2023-01-01T23:36:54.219Z,1.23
2023-01-01T23:39:21.729Z,1.10
2023-01-01T23:41:49.437Z,1.15
2023-01-01T23:44:16.543Z,0.90
2023-01-01T23:46:44.032Z,1.15
2023-01-01T23:49:12.287Z,1.33
2023-01-01T23:51:39.968Z,1.20
2023-01-01T23:54:07.317Z,1.10
2023-01-01T23:56:34.597Z,0.90
2023-01-01T23:59:01.712Z,0.73
